Time;durP1;ratioP1;P1;durP2;ratioP2;P2;SDS_P1;SDS_P2;PMS_P1;PMS_P2;Temp;Humidity;BMP_temperature;BMP_pressure;BME280_temperature;BME280_humidity;BME280_pressure;Samples;Min_cycle;Max_cycle;Signal;HPM_P1;HPM_P2
2022/08/30 00:02:19;;;;;;;16.30;4.40;;;;;;;17.10;100.00;96105.81;5012206;28;24977;-79
2022/08/30 00:04:46;;;;;;;5.90;3.65;;;;;;;17.16;100.00;96114.94;5013616;28;24445;-79
2022/08/30 00:07:12;;;;;;;6.57;4.32;;;;;;;17.20;100.00;96110.28;5018761;28;24443;-79
2022/08/30 00:09:39;;;;;;;5.38;3.95;;;;;;;17.09;99.03;96112.03;5022944;28;24436;-79
2022/08/30 00:12:06;;;;;;;4.57;4.05;;;;;;;17.22;98.74;96111.00;5014264;28;24425;-79
2022/08/30 00:14:32;;;;;;;6.18;3.83;;;;;;;17.29;97.83;96112.13;5005823;28;24982;-79
2022/08/30 00:17:00;;;;;;;5.35;3.33;;;;;;;17.27;97.56;96112.25;5017155;28;24449;-79
2022/08/30 00:19:26;;;;;;;4.28;3.38;;;;;;;17.17;99.01;96112.22;5008906;28;24448;-79
2022/08/30 00:21:53;;;;;;;6.18;3.50;;;;;;;17.12;98.59;96111.75;5024753;28;24451;-80
2022/08/30 00:24:19;;;;;;;3.78;3.38;;;;;;;17.03;99.84;96109.91;5009161;28;24436;-80
2022/08/30 00:26:46;;;;;;;5.07;3.42;;;;;;;16.98;100.00;96114.69;5016710;28;24441;-79
2022/08/30 00:29:12;;;;;;;6.28;3.80;;;;;;;16.97;99.82;96115.63;5022434;28;24444;-79
2022/08/30 00:31:39;;;;;;;4.07;3.40;;;;;;;17.03;99.23;96119.56;5021163;28;24439;-79
2022/08/30 00:34:07;;;;;;;4.95;3.70;;;;;;;17.02;99.26;96118.72;5007847;28;25355;-80
2022/08/30 00:36:33;;;;;;;5.17;3.80;;;;;;;17.06;98.60;96114.91;5011894;28;24525;-79
2022/08/30 00:39:00;;;;;;;5.22;3.70;;;;;;;17.01;99.08;96116.22;5027716;28;25000;-78
2022/08/30 00:41:26;;;;;;;5.55;3.63;;;;;;;16.88;100.00;96117.25;5023891;28;24475;-79
2022/08/30 00:43:53;;;;;;;4.80;3.77;;;;;;;16.77;100.00;96113.84;5018146;28;24449;-79
2022/08/30 00:46:19;;;;;;;5.40;4.13;;;;;;;16.70;100.00;96119.53;5010114;28;24441;-79
2022/08/30 00:48:49;;;;;;;6.20;3.97;;;;;;;16.70;100.00;96126.56;5007648;28;24448;-79
2022/08/30 00:51:19;;;;;;;4.70;3.78;;;;;;;16.71;100.00;96125.59;5017176;28;24483;-79
2022/08/30 00:53:48;;;;;;;4.28;3.78;;;;;;;16.70;100.00;96119.53;5010009;28;24441;-79
2022/08/30 00:56:17;;;;;;;4.40;3.53;;;;;;;16.77;100.00;96112.06;5008152;28;24436;-79
2022/08/30 00:58:48;;;;;;;4.97;3.90;;;;;;;16.74;100.00;96116.72;5012359;28;24468;-80
2022/08/30 01:01:15;;;;;;;5.10;4.30;;;;;;;16.65;100.00;96124.34;5018072;28;24450;-79
2022/08/30 01:03:42;;;;;;;5.22;4.53;;;;;;;16.64;100.00;96124.44;5023781;28;24447;-79
2022/08/30 01:06:10;;;;;;;6.40;3.83;;;;;;;16.65;100.00;96126.94;5010829;28;24441;-79
2022/08/30 01:08:38;;;;;;;6.72;4.05;;;;;;;16.64;100.00;96119.22;5011593;28;24444;-80
2022/08/30 01:11:05;;;;;;;4.15;3.63;;;;;;;16.51;100.00;96126.41;5003746;28;25031;-80
2022/08/30 01:13:34;;;;;;;5.00;3.80;;;;;;;16.48;100.00;96124.03;5020935;28;25043;-79
2022/08/30 01:16:02;;;;;;;5.57;3.90;;;;;;;16.38;100.00;96111.69;5013765;28;24440;-79
2022/08/30 01:18:29;;;;;;;4.45;3.80;;;;;;;16.44;100.00;96113.81;5011210;28;24445;-79
2022/08/30 01:21:02;;;;;;;5.18;3.90;;;;;;;16.42;100.00;96114.88;5011401;28;24819;-79
2022/08/30 01:23:33;;;;;;;6.85;4.35;;;;;;;16.16;100.00;96114.34;5010332;28;24451;-79
2022/08/30 01:26:01;;;;;;;6.70;4.03;;;;;;;15.97;100.00;96122.81;5018980;28;24443;-79
2022/08/30 01:28:29;;;;;;;5.15;3.63;;;;;;;16.01;100.00;96129.47;5016123;28;24477;-78
2022/08/30 01:30:56;;;;;;;5.00;4.10;;;;;;;16.01;100.00;96131.25;5018289;28;25203;-79
2022/08/30 01:33:23;;;;;;;6.88;4.28;;;;;;;15.95;100.00;96125.56;5022502;28;24444;-79
2022/08/30 01:36:00;;;;;;;5.95;4.50;;;;;;;15.95;100.00;96122.13;5002897;28;24436;-79
2022/08/30 01:38:33;;;;;;;6.43;4.32;;;;;;;15.90;100.00;96126.88;5013983;28;24436;-79
2022/08/30 01:41:10;;;;;;;7.57;4.40;;;;;;;15.83;100.00;96128.28;5018824;28;24486;-79
2022/08/30 01:43:37;;;;;;;8.80;4.82;;;;;;;15.85;100.00;96124.63;5019897;28;24452;-79
2022/08/30 01:46:03;;;;;;;7.10;5.10;;;;;;;15.83;100.00;96128.28;5014922;28;24441;-79
2022/08/30 01:48:30;;;;;;;5.20;4.57;;;;;;;15.83;100.00;96123.06;5015609;28;24444;-79
2022/08/30 01:50:57;;;;;;;6.72;4.68;;;;;;;15.93;100.00;96124.03;5016912;28;24448;-79
2022/08/30 01:53:24;;;;;;;7.15;4.88;;;;;;;15.80;100.00;96126.78;5022389;28;24439;-79
2022/08/30 01:55:50;;;;;;;6.35;4.75;;;;;;;15.81;100.00;96125.00;5014558;28;24531;-79
2022/08/30 01:58:18;;;;;;;5.35;4.00;;;;;;;15.82;100.00;96121.41;5017265;28;24448;-79
2022/08/30 02:00:45;;;;;;;7.60;4.85;;;;;;;15.81;100.00;96115.38;5013669;28;24452;-80
2022/08/30 02:03:11;;;;;;;6.68;4.65;;;;;;;15.83;100.00;96115.22;5027687;28;24466;-79
2022/08/30 02:05:38;;;;;;;4.95;4.25;;;;;;;15.94;100.00;96116.09;5018341;28;24447;-79
2022/08/30 02:08:04;;;;;;;8.77;4.72;;;;;;;15.87;100.00;96117.50;5019527;28;24436;-79
2022/08/30 02:10:31;;;;;;;5.85;4.68;;;;;;;15.75;100.00;96117.63;5023043;28;24486;-79
2022/08/30 02:12:58;;;;;;;6.50;4.72;;;;;;;15.55;100.00;96127.81;5014454;28;24436;-80
2022/08/30 02:15:26;;;;;;;5.45;4.60;;;;;;;15.51;100.00;96120.34;5019160;28;24544;-80
2022/08/30 02:17:52;;;;;;;6.53;4.53;;;;;;;15.47;100.00;96111.91;5027378;28;24508;-79
2022/08/30 02:20:19;;;;;;;8.27;4.45;;;;;;;15.48;100.00;96117.00;5025921;28;24470;-79
2022/08/30 02:22:46;;;;;;;6.18;4.55;;;;;;;15.54;100.00;96114.88;5020311;28;24467;-80
2022/08/30 02:25:14;;;;;;;6.80;4.97;;;;;;;15.62;100.00;96112.50;5019792;28;24613;-80
2022/08/30 02:27:40;;;;;;;7.15;4.82;;;;;;;15.72;100.00;96109.09;5020392;28;24459;-80
2022/08/30 02:30:08;;;;;;;6.00;4.53;;;;;;;15.62;100.00;96110.72;5022598;28;24568;-80
2022/08/30 02:32:36;;;;;;;6.47;4.65;;;;;;;15.47;100.00;96114.50;5013570;28;24451;-80
2022/08/30 02:35:03;;;;;;;5.40;4.30;;;;;;;15.34;100.00;96121.59;5026520;28;24442;-80
2022/08/30 02:37:30;;;;;;;5.60;4.53;;;;;;;15.35;100.00;96112.81;5019903;28;24440;-80
2022/08/30 02:39:56;;;;;;;6.05;4.50;;;;;;;15.45;100.00;96116.41;5022876;28;24451;-80
2022/08/30 02:42:23;;;;;;;6.68;4.10;;;;;;;15.52;100.00;96109.75;5013966;28;24455;-79
2022/08/30 02:44:49;;;;;;;5.35;4.43;;;;;;;15.49;100.00;96104.78;5027584;28;24447;-79
2022/08/30 02:47:16;;;;;;;7.63;4.80;;;;;;;15.58;100.00;96101.47;5030150;28;24439;-79
2022/08/30 02:49:44;;;;;;;5.05;4.10;;;;;;;15.53;100.00;96095.75;5024971;28;24444;-80
2022/08/30 02:52:10;;;;;;;6.75;4.93;;;;;;;15.35;100.00;96092.81;5027848;28;24436;-81
2022/08/30 02:54:37;;;;;;;6.18;4.57;;;;;;;15.22;100.00;96098.09;5018198;28;24439;-80
2022/08/30 02:57:05;;;;;;;7.45;4.90;;;;;;;15.22;100.00;96087.66;5013976;28;24445;-80
2022/08/30 02:59:32;;;;;;;9.95;4.90;;;;;;;15.26;100.00;96083.06;5006669;28;24441;-79
2022/08/30 03:01:59;;;;;;;5.25;4.65;;;;;;;15.23;100.00;96073.66;5015692;28;24445;-81
2022/08/30 03:04:25;;;;;;;9.50;5.28;;;;;;;15.31;100.00;96072.25;5019084;28;24479;-79
2022/08/30 03:06:53;;;;;;;8.03;4.97;;;;;;;15.27;100.00;96074.25;5026882;28;24976;-80
2022/08/30 03:09:21;;;;;;;6.50;4.35;;;;;;;15.10;100.00;96082.56;5011794;28;24447;-80
2022/08/30 03:11:47;;;;;;;7.57;5.23;;;;;;;14.97;100.00;96085.25;5010688;28;25077;-81
2022/08/30 03:14:14;;;;;;;9.98;5.00;;;;;;;14.96;100.00;96084.44;5028238;28;24810;-79
2022/08/30 03:16:40;;;;;;;6.40;5.22;;;;;;;15.05;100.00;96084.69;5023768;28;24436;-79
2022/08/30 03:19:07;;;;;;;5.13;4.25;;;;;;;15.14;100.00;96074.38;5016361;28;24450;-80
2022/08/30 03:21:33;;;;;;;6.90;4.90;;;;;;;15.22;100.00;96074.63;5027470;28;24440;-81
2022/08/30 03:24:01;;;;;;;8.53;5.50;;;;;;;15.23;100.00;96076.28;5031172;28;24464;-79
2022/08/30 03:26:28;;;;;;;8.00;4.78;;;;;;;15.14;100.00;96068.34;5025518;28;24451;-80
2022/08/30 03:28:54;;;;;;;6.60;4.93;;;;;;;15.02;100.00;96070.09;5016629;28;24428;-80
2022/08/30 03:31:21;;;;;;;5.95;4.95;;;;;;;14.95;100.00;96074.94;5023848;28;24459;-80
2022/08/30 03:33:47;;;;;;;6.63;4.78;;;;;;;14.92;100.00;96069.97;5018311;28;24832;-80
2022/08/30 03:36:14;;;;;;;6.22;4.50;;;;;;;14.92;100.00;96069.97;5019307;28;24436;-79
2022/08/30 03:38:40;;;;;;;5.80;5.03;;;;;;;14.95;100.00;96072.34;5007367;28;24452;-79
2022/08/30 03:41:08;;;;;;;5.60;4.93;;;;;;;14.95;100.00;96079.34;5015689;28;24440;-79
2022/08/30 03:43:35;;;;;;;7.72;4.97;;;;;;;14.97;100.00;96074.81;5010303;28;24455;-79
2022/08/30 03:46:02;;;;;;;7.63;5.05;;;;;;;14.90;100.00;96071.00;5019570;28;24490;-79
2022/08/30 03:48:29;;;;;;;5.88;4.40;;;;;;;14.85;100.00;96075.75;5006254;28;24444;-78
2022/08/30 03:50:55;;;;;;;5.90;4.70;;;;;;;14.88;100.00;96072.91;5021070;28;24489;-79
2022/08/30 03:53:23;;;;;;;8.02;4.68;;;;;;;14.89;100.00;96075.41;5020477;28;24990;-79
2022/08/30 03:55:49;;;;;;;6.40;4.53;;;;;;;14.94;100.00;96072.44;5018811;28;24441;-79
2022/08/30 03:58:17;;;;;;;7.30;4.15;;;;;;;14.93;100.00;96070.78;5011595;28;24819;-79
2022/08/30 04:00:43;;;;;;;4.95;4.18;;;;;;;14.88;100.00;96068.53;5013050;28;24441;-79
2022/08/30 04:03:10;;;;;;;6.93;4.20;;;;;;;14.82;100.00;96068.97;5021047;28;24486;-80
2022/08/30 04:05:36;;;;;;;5.93;4.38;;;;;;;14.77;100.00;96065.91;5000817;28;24443;-79
2022/08/30 04:08:03;;;;;;;5.10;4.20;;;;;;;14.83;100.00;96065.44;5025840;28;24442;-79
2022/08/30 04:10:30;;;;;;;7.13;4.80;;;;;;;14.92;100.00;96069.13;5006071;28;24795;-79
2022/08/30 04:12:57;;;;;;;12.35;4.60;;;;;;;14.77;100.00;96066.72;5019738;28;24437;-79
2022/08/30 04:15:24;;;;;;;7.20;4.57;;;;;;;14.62;100.00;96077.47;5018124;28;24434;-79
2022/08/30 04:17:52;;;;;;;5.85;4.40;;;;;;;14.59;100.00;96078.53;5018541;28;24482;-79
2022/08/30 04:20:19;;;;;;;6.35;4.82;;;;;;;14.62;100.00;96086.13;5015241;28;24440;-77
2022/08/30 04:22:45;;;;;;;5.88;4.70;;;;;;;14.71;100.00;96087.19;5007684;28;24453;-77
2022/08/30 04:25:12;;;;;;;6.25;4.63;;;;;;;14.79;100.00;96086.63;5017138;28;24441;-77
2022/08/30 04:27:39;;;;;;;6.00;4.90;;;;;;;14.75;100.00;96088.63;5018060;28;24995;-78
2022/08/30 04:30:06;;;;;;;5.65;4.70;;;;;;;14.75;100.00;96081.63;5005282;28;24445;-78
2022/08/30 04:32:37;;;;;;;7.43;4.97;;;;;;;14.65;100.00;96075.47;5021798;28;25036;-77
2022/08/30 04:35:04;;;;;;;6.10;4.43;;;;;;;14.62;100.00;96078.31;5001221;28;24534;-78
2022/08/30 04:37:31;;;;;;;5.68;4.68;;;;;;;14.65;100.00;96077.25;5016414;28;24439;-78
2022/08/30 04:39:59;;;;;;;5.75;4.65;;;;;;;14.58;100.00;96083.88;5015219;28;24456;-77
2022/08/30 04:42:26;;;;;;;5.45;4.65;;;;;;;14.64;100.00;96084.22;5018031;28;24981;-77
2022/08/30 04:44:53;;;;;;;7.78;4.90;;;;;;;14.70;100.00;96086.38;5004059;28;24528;-78
2022/08/30 04:47:20;;;;;;;13.55;4.88;;;;;;;14.64;100.00;96086.00;5009450;28;24446;-78
2022/08/30 04:49:48;;;;;;;5.20;4.50;;;;;;;14.55;100.00;96100.53;5018248;28;25012;-77
2022/08/30 04:52:14;;;;;;;5.30;4.78;;;;;;;14.59;100.00;96103.75;5019348;28;24436;-77
2022/08/30 04:54:41;;;;;;;6.80;5.07;;;;;;;14.67;100.00;96107.44;5005094;28;24433;-78
2022/08/30 04:57:07;;;;;;;5.55;4.57;;;;;;;14.75;100.00;96101.66;5014034;28;24439;-77
2022/08/30 04:59:34;;;;;;;10.70;4.53;;;;;;;14.82;100.00;96107.28;5020711;28;24440;-78
2022/08/30 05:02:00;;;;;;;5.20;4.53;;;;;;;14.81;100.00;96113.44;5022533;28;25108;-77
2022/08/30 05:04:27;;;;;;;9.20;5.37;;;;;;;14.79;100.00;96110.94;5020193;28;24510;-77
2022/08/30 05:06:55;;;;;;;5.88;4.90;;;;;;;14.82;100.00;96117.69;5027179;28;24881;-78
2022/08/30 05:09:21;;;;;;;6.13;5.53;;;;;;;14.87;100.00;96107.75;5019183;28;24445;-78
2022/08/30 05:11:48;;;;;;;7.22;5.55;;;;;;;15.10;100.00;96112.09;5019484;28;24443;-76
2022/08/30 05:14:14;;;;;;;5.65;4.85;;;;;;;14.98;100.00;96113.00;5012798;28;24455;-77
2022/08/30 05:16:41;;;;;;;6.47;5.53;;;;;;;15.02;100.00;96117.06;5023386;28;25027;-77
2022/08/30 05:19:08;;;;;;;6.93;5.40;;;;;;;14.95;100.00;96110.63;5008669;28;24435;-77
2022/08/30 05:21:34;;;;;;;7.20;5.22;;;;;;;14.99;100.00;96112.06;5017674;28;24475;-77
2022/08/30 05:24:03;;;;;;;7.50;4.60;;;;;;;14.92;100.00;96108.25;5006605;28;24459;-79
2022/08/30 05:26:31;;;;;;;7.57;4.45;;;;;;;14.88;100.00;96125.91;5013148;28;24437;-78
2022/08/30 05:28:58;;;;;;;4.82;4.28;;;;;;;14.96;100.00;96118.34;5015954;28;24459;-77
2022/08/30 05:31:27;;;;;;;9.13;5.00;;;;;;;14.92;100.00;96111.69;5022993;28;24439;-79
2022/08/30 05:33:54;;;;;;;6.40;5.53;;;;;;;14.95;100.00;96106.25;5014151;28;24429;-76
2022/08/30 05:36:27;;;;;;;7.47;5.40;;;;;;;14.96;100.00;96101.84;5015233;28;24448;-76
2022/08/30 05:38:54;;;;;;;8.27;6.28;;;;;;;14.94;100.00;96104.59;5012082;28;24433;-76
2022/08/30 05:41:24;;;;;;;12.57;7.78;;;;;;;15.02;100.00;96111.84;5017261;28;24455;-76
2022/08/30 05:43:53;;;;;;;14.13;8.00;;;;;;;15.12;100.00;96119.78;5011087;28;24456;-76
2022/08/30 05:46:20;;;;;;;10.65;6.38;;;;;;;15.28;100.00;96124.66;5014761;28;24428;-77
2022/08/30 05:48:49;;;;;;;7.93;5.50;;;;;;;15.39;100.00;96130.75;5012873;28;24544;-76
2022/08/30 05:51:17;;;;;;;6.68;5.50;;;;;;;15.37;100.00;96131.81;5013379;28;24447;-77
2022/08/30 05:53:46;;;;;;;11.85;6.00;;;;;;;15.43;100.00;96126.13;5019115;28;24810;-77
2022/08/30 05:56:14;;;;;;;8.32;5.85;;;;;;;15.55;100.00;96125.19;5013163;28;25007;-76
2022/08/30 05:58:43;;;;;;;7.40;5.68;;;;;;;15.66;100.00;96125.22;5015020;28;24455;-77
2022/08/30 06:01:19;;;;;;;6.90;5.68;;;;;;;15.84;100.00;96122.97;5012960;28;24463;-77
2022/08/30 06:03:45;;;;;;;10.23;5.67;;;;;;;15.99;100.00;96126.16;5012352;28;24505;-77
2022/08/30 06:06:12;;;;;;;7.82;5.85;;;;;;;16.02;100.00;96119.84;5012197;28;24806;-77
2022/08/30 06:08:38;;;;;;;7.00;5.57;;;;;;;16.03;100.00;96116.31;5019388;28;24451;-77
2022/08/30 06:11:05;;;;;;;7.55;5.38;;;;;;;16.07;100.00;96115.09;5024377;28;24443;-77
2022/08/30 06:13:31;;;;;;;5.97;5.37;;;;;;;16.12;100.00;96115.56;5007047;28;24486;-77
2022/08/30 06:15:59;;;;;;;6.43;5.30;;;;;;;16.17;100.00;96118.66;5015406;28;24498;-77
2022/08/30 06:18:26;;;;;;;6.65;5.97;;;;;;;16.26;100.00;96109.25;5006088;28;24467;-70
2022/08/30 06:20:52;;;;;;;8.43;5.82;;;;;;;16.38;100.00;96116.09;5021852;28;24465;-77
2022/08/30 06:23:18;;;;;;;8.68;6.10;;;;;;;16.57;100.00;96111.03;5008013;28;24459;-77
2022/08/30 06:25:45;;;;;;;9.68;6.57;;;;;;;16.58;100.00;96120.56;5011102;28;24990;-77
2022/08/30 06:28:12;;;;;;;6.78;5.93;;;;;;;16.71;100.00;96125.59;5022300;28;24443;-76
2022/08/30 06:30:40;;;;;;;6.97;5.50;;;;;;;16.77;100.00;96127.75;5023641;28;24476;-77
2022/08/30 06:33:08;;;;;;;8.60;5.53;;;;;;;16.84;100.00;96113.22;5004917;28;24459;-77
2022/08/30 06:35:35;;;;;;;8.48;6.15;;;;;;;17.04;100.00;96115.97;5020154;28;24447;-77
2022/08/30 06:38:02;;;;;;;9.60;5.78;;;;;;;17.29;100.00;96115.56;5005480;28;24440;-77
2022/08/30 06:40:29;;;;;;;7.75;5.68;;;;;;;17.57;100.00;96115.84;5022220;28;24447;-77
2022/08/30 06:42:56;;;;;;;7.95;5.78;;;;;;;17.83;100.00;96116.25;5004439;28;24970;-77
2022/08/30 06:45:22;;;;;;;7.07;6.07;;;;;;;18.08;100.00;96115.78;5021009;28;24480;-78
2022/08/30 06:47:49;;;;;;;9.88;6.10;;;;;;;18.29;98.25;96115.72;5002973;28;24463;-77
2022/08/30 06:50:17;;;;;;;9.35;5.25;;;;;;;18.53;97.19;96125.81;5010258;28;24448;-77
2022/08/30 06:52:45;;;;;;;8.35;5.70;;;;;;;18.51;95.97;96125.13;5011358;28;24440;-77
2022/08/30 06:55:13;;;;;;;7.93;6.30;;;;;;;18.42;96.56;96127.72;5010332;28;24440;-78
2022/08/30 06:57:40;;;;;;;11.55;5.95;;;;;;;18.72;95.42;96132.06;4997071;28;24441;-76
2022/08/30 07:00:09;;;;;;;8.68;5.95;;;;;;;18.90;93.33;96129.59;5005966;28;24451;-76
2022/08/30 07:02:36;;;;;;;10.10;6.70;;;;;;;18.61;96.44;96125.97;5016007;28;24471;-77
2022/08/30 07:05:03;;;;;;;10.77;5.97;;;;;;;18.61;97.21;96123.34;5014232;28;24451;-77
2022/08/30 07:07:31;;;;;;;7.07;5.97;;;;;;;18.82;97.69;96140.78;5017272;28;24432;-78
2022/08/30 07:09:58;;;;;;;6.97;5.90;;;;;;;18.97;96.88;96136.75;5015268;28;24451;-78
2022/08/30 07:12:24;;;;;;;9.02;6.75;;;;;;;19.00;95.32;96135.66;5018577;28;24441;-77
2022/08/30 07:14:51;;;;;;;7.70;6.18;;;;;;;19.07;96.55;96139.41;5024799;28;24431;-77
2022/08/30 07:20:02;;;;;;;10.32;7.00;;;;;;;19.10;97.28;96132.06;5023210;28;24464;-77
2022/08/30 07:22:29;;;;;;;9.20;6.30;;;;;;;19.22;98.17;96131.91;5009381;28;24440;-76
2022/08/30 07:24:56;;;;;;;9.43;6.85;;;;;;;19.12;99.75;96131.91;5024172;28;25053;-76
2022/08/30 07:27:23;;;;;;;12.77;7.35;;;;;;;19.10;99.23;96126.00;5017856;28;24444;-76
2022/08/30 07:29:49;;;;;;;10.00;6.88;;;;;;;19.48;96.35;96132.97;5023766;28;24443;-78
2022/08/30 07:32:16;;;;;;;9.47;6.37;;;;;;;19.44;94.71;96126.34;5009826;28;24512;-77
2022/08/30 07:34:42;;;;;;;9.20;6.53;;;;;;;19.54;94.26;96126.28;5018644;28;24442;-76
2022/08/30 07:37:09;;;;;;;13.00;6.15;;;;;;;19.81;94.44;96125.56;5015737;28;24448;-77
2022/08/30 07:39:35;;;;;;;10.57;6.20;;;;;;;19.96;90.56;96128.53;5021147;28;25001;-77
2022/08/30 07:42:04;;;;;;;8.00;5.75;;;;;;;20.13;88.06;96138.25;5008957;28;24432;-76
2022/08/30 07:44:31;;;;;;;13.27;6.20;;;;;;;20.25;88.03;96131.03;5022400;28;24552;-78
2022/08/30 07:46:57;;;;;;;8.87;6.07;;;;;;;20.61;88.53;96133.72;5024172;28;24435;-78
2022/08/30 07:49:24;;;;;;;10.20;6.25;;;;;;;20.91;84.13;96136.00;5006507;28;24457;-78
2022/08/30 07:51:50;;;;;;;9.43;5.60;;;;;;;20.99;84.92;96136.06;5005737;28;24444;-77
2022/08/30 07:54:17;;;;;;;10.43;5.53;;;;;;;21.03;83.43;96132.16;5022157;28;24486;-78
2022/08/30 07:56:43;;;;;;;8.63;5.35;;;;;;;21.08;83.22;96130.88;5009312;28;24814;-78
2022/08/30 07:59:11;;;;;;;7.97;5.68;;;;;;;21.13;83.61;96132.03;5021529;28;24444;-79
2022/08/30 08:01:38;;;;;;;9.23;6.03;;;;;;;21.22;83.39;96127.69;5018212;28;24443;-79
2022/08/30 08:04:04;;;;;;;11.45;6.25;;;;;;;21.20;83.16;96127.00;5003749;28;24463;-79
2022/08/30 08:06:31;;;;;;;7.95;5.20;;;;;;;21.50;83.43;96126.56;5009206;28;24433;-77
2022/08/30 08:09:01;;;;;;;8.67;5.80;;;;;;;21.97;80.42;96122.72;4999617;28;24448;-78
2022/08/30 08:11:28;;;;;;;8.75;5.25;;;;;;;22.51;81.55;96120.63;5023011;22;24464;-71
2022/08/30 08:13:55;;;;;;;7.57;5.50;;;;;;;22.87;79.28;96126.44;4989257;28;24814;-71
2022/08/30 08:16:26;;;;;;;5.95;4.88;;;;;;;23.15;75.42;96129.63;4988917;28;25042;-71
2022/08/30 08:18:53;;;;;;;7.10;5.22;;;;;;;23.40;74.59;96122.53;4988895;28;24444;-71
2022/08/30 08:21:20;;;;;;;6.67;4.97;;;;;;;23.53;77.65;96121.19;4987641;28;24437;-71
2022/08/30 08:23:47;;;;;;;7.43;4.90;;;;;;;23.73;74.51;96124.28;4986325;28;24453;-71
2022/08/30 08:26:13;;;;;;;5.88;5.18;;;;;;;23.97;75.29;96118.13;4988758;28;25024;-71
2022/08/30 08:28:40;;;;;;;8.80;5.18;;;;;;;23.89;71.16;96117.16;4992871;28;24444;-71
2022/08/30 08:31:14;;;;;;;12.57;5.97;;;;;;;23.24;73.58;96119.88;4979909;28;24540;-71
2022/08/30 08:33:42;;;;;;;8.93;5.22;;;;;;;23.06;76.15;96124.50;4987359;28;24449;-71
2022/08/30 08:36:09;;;;;;;5.88;4.70;;;;;;;23.68;73.68;96111.59;4989144;28;24437;-71
2022/08/30 08:38:35;;;;;;;6.78;4.75;;;;;;;23.64;71.63;96120.81;4981279;28;24517;-71
2022/08/30 08:41:10;;;;;;;5.25;4.70;;;;;;;24.03;72.58;96122.72;4984804;28;24461;-71
2022/08/30 08:43:37;;;;;;;6.43;4.68;;;;;;;24.55;69.07;96115.06;4992699;28;24433;-71
2022/08/30 08:46:09;;;;;;;4.93;4.30;;;;;;;24.70;68.27;96120.44;4992465;28;24425;-71
2022/08/30 08:48:45;;;;;;;9.10;4.90;;;;;;;24.74;66.57;96116.44;4990157;28;24444;-71
2022/08/30 08:54:02;;;;;;;7.10;4.30;;;;;;;25.67;64.00;96115.34;4987078;28;24479;-71
2022/08/30 08:56:29;;;;;;;5.53;4.55;;;;;;;25.65;60.71;96108.56;4991637;28;24807;-72
2022/08/30 08:58:57;;;;;;;5.80;4.13;;;;;;;25.70;63.21;96100.91;4989492;28;24833;-72
2022/08/30 09:01:26;;;;;;;11.25;4.53;;;;;;;25.89;61.66;96110.16;4981261;28;24930;-72
2022/08/30 09:03:55;;;;;;;6.65;4.25;;;;;;;26.20;59.67;96109.94;4986947;28;24456;-72
2022/08/30 09:06:40;;;;;;;4.60;4.00;;;;;;;26.11;59.35;96108.41;4990185;28;24823;-71
2022/08/30 09:09:06;;;;;;;5.38;3.78;;;;;;;26.10;58.05;96099.59;4984298;28;24457;-71
2022/08/30 09:11:35;;;;;;;6.50;4.20;;;;;;;26.58;59.13;96105.31;4981700;28;24449;-71
2022/08/30 09:14:03;;;;;;;5.57;4.43;;;;;;;26.87;57.81;96106.22;4986408;28;24430;-71
2022/08/30 09:16:48;;;;;;;7.57;4.13;;;;;;;26.60;57.52;96099.81;4988822;28;24437;-71
2022/08/30 09:19:34;;;;;;;4.25;3.80;;;;;;;26.76;55.91;96105.72;4990189;28;24444;-71
2022/08/30 09:22:04;;;;;;;5.00;3.92;;;;;;;26.84;57.32;96103.94;4990667;28;24514;-71
2022/08/30 09:24:41;;;;;;;5.85;3.97;;;;;;;26.87;52.94;96098.25;4988014;28;24452;-71
2022/08/30 09:27:25;;;;;;;9.00;4.50;;;;;;;26.88;54.78;96095.38;4988876;28;24536;-71
2022/08/30 09:29:58;;;;;;;5.43;3.88;;;;;;;26.74;53.38;96093.63;4989955;28;24440;-71
2022/08/30 09:32:27;;;;;;;6.38;4.18;;;;;;;26.59;55.33;96100.81;4991796;28;24433;-71
2022/08/30 09:34:55;;;;;;;6.07;3.97;;;;;;;26.62;54.49;96103.91;4988812;28;24472;-71
2022/08/30 09:37:31;;;;;;;5.35;3.70;;;;;;;26.49;54.77;96099.28;4992157;28;24440;-71
2022/08/30 09:39:59;;;;;;;5.65;3.72;;;;;;;26.49;53.20;96087.84;4987126;28;24527;-71
2022/08/30 09:42:28;;;;;;;5.82;3.90;;;;;;;26.51;55.00;96086.66;4986289;28;24437;-71
2022/08/30 09:45:09;;;;;;;4.45;3.60;;;;;;;26.83;53.02;96081.03;4988954;28;25045;-71
2022/08/30 09:47:39;;;;;;;5.95;3.80;;;;;;;27.29;53.56;96081.44;4986967;28;24449;-71
2022/08/30 09:50:10;;;;;;;4.32;3.40;;;;;;;27.33;49.76;96074.75;4988905;28;24437;-69
2022/08/30 09:52:45;;;;;;;4.40;3.50;;;;;;;27.38;48.90;96069.69;4986277;28;24437;-71
2022/08/30 09:55:26;;;;;;;6.30;3.63;;;;;;;27.01;48.69;96076.91;4991124;28;24507;-71
2022/08/30 09:58:00;;;;;;;6.05;3.30;;;;;;;27.21;52.14;96074.44;4985411;28;24428;-71
2022/08/30 10:00:30;;;;;;;6.50;3.67;;;;;;;27.30;49.16;96067.16;4986036;28;24448;-71
2022/08/30 10:03:06;;;;;;;5.43;3.65;;;;;;;27.29;50.01;96070.00;4984330;28;24447;-71
2022/08/30 10:05:52;;;;;;;4.32;3.67;;;;;;;27.34;49.24;96067.59;4979547;28;24445;-71
2022/08/30 10:08:26;;;;;;;5.60;3.38;;;;;;;27.47;46.10;96068.50;4986513;28;24437;-71
2022/08/30 10:10:59;;;;;;;4.00;3.30;;;;;;;27.78;48.87;96061.97;4989578;28;24441;-71
2022/08/30 10:13:42;;;;;;;4.18;3.22;;;;;;;27.89;46.30;96066.75;4987635;28;24437;-71
2022/08/30 10:16:18;;;;;;;5.07;3.92;;;;;;;27.97;48.25;96063.09;4980846;28;24429;-71
2022/08/30 10:18:57;;;;;;;5.75;3.08;;;;;;;27.91;45.97;96061.22;4986788;28;24425;-71
2022/08/30 10:21:32;;;;;;;4.43;3.38;;;;;;;28.04;46.32;96058.63;4986336;28;24445;-71
2022/08/30 10:24:03;;;;;;;4.32;2.97;;;;;;;28.21;41.58;96054.56;4989649;28;24428;-71
2022/08/30 10:26:35;;;;;;;4.10;2.78;;;;;;;28.14;36.09;96053.72;4986754;28;25065;-71
2022/08/30 10:29:05;;;;;;;2.80;2.50;;;;;;;28.05;39.20;96044.28;4989919;28;24456;-72
2022/08/30 10:31:40;;;;;;;3.47;2.80;;;;;;;28.19;42.48;96045.16;4986851;28;24436;-72
2022/08/30 10:34:14;;;;;;;3.42;3.00;;;;;;;28.19;41.77;96045.16;4991419;28;24993;-71
2022/08/30 10:36:47;;;;;;;4.50;3.50;;;;;;;28.08;43.07;96040.41;4986306;28;24429;-71
2022/08/30 10:39:24;;;;;;;5.32;3.00;;;;;;;28.07;41.99;96036.09;4983435;28;25009;-71
2022/08/30 10:41:54;;;;;;;4.75;3.08;;;;;;;27.84;42.25;96029.22;4985871;28;24444;-71
2022/08/30 10:44:27;;;;;;;4.18;3.00;;;;;;;28.03;42.13;96034.84;4989334;28;25034;-72
2022/08/30 10:47:15;;;;;;;5.25;3.38;;;;;;;28.23;40.19;96036.56;4980754;28;24429;-72
2022/08/30 10:49:44;;;;;;;4.80;3.10;;;;;;;28.03;43.92;96025.00;4985902;28;25027;-71
2022/08/30 10:52:25;;;;;;;3.03;2.70;;;;;;;28.14;41.37;96029.75;4987454;28;24498;-72
2022/08/30 10:54:57;;;;;;;6.07;3.47;;;;;;;28.57;43.64;96026.84;4982120;28;24433;-71
2022/08/30 10:57:24;;;;;;;3.80;3.03;;;;;;;28.84;39.58;96030.34;4982837;28;24831;-71
2022/08/30 10:59:54;;;;;;;5.22;3.30;;;;;;;28.75;39.45;96030.78;4986842;28;24432;-71
2022/08/30 11:02:54;;;;;;;4.30;2.85;;;;;;;28.72;39.99;96033.84;4982285;28;24444;-71
2022/08/30 11:05:37;;;;;;;4.40;3.22;;;;;;;28.25;40.08;96036.34;4961757;28;24457;-71
2022/08/30 11:08:15;;;;;;;3.53;2.92;;;;;;;28.05;40.63;96035.47;4986931;28;24433;-71
2022/08/30 11:10:52;;;;;;;4.25;3.10;;;;;;;27.91;41.41;96035.41;4985609;28;24448;-71
2022/08/30 11:13:23;;;;;;;10.57;3.37;;;;;;;27.84;40.76;96033.75;4983680;28;24440;-71
2022/08/30 11:15:56;;;;;;;3.88;2.90;;;;;;;28.50;42.52;96026.00;4982063;28;24437;-72
2022/08/30 11:18:24;;;;;;;4.10;3.25;;;;;;;28.31;41.70;96030.25;4989892;28;24536;-72
2022/08/30 11:20:55;;;;;;;5.20;3.28;;;;;;;27.99;40.96;96029.09;4983893;28;24444;-72
2022/08/30 11:23:30;;;;;;;5.03;3.03;;;;;;;28.00;41.36;96022.78;4989580;28;24966;-72
2022/08/30 11:26:00;;;;;;;3.50;3.10;;;;;;;27.42;42.52;96027.56;4983401;28;25002;-74
2022/08/30 11:29:09;;;;;;;5.70;2.85;;;;;;;27.75;43.08;96027.78;4976758;28;24448;-72
2022/08/30 11:31:39;;;;;;;3.40;3.10;;;;;;;27.63;43.55;96024.00;4982611;28;24461;-71
2022/08/30 11:34:07;;;;;;;5.93;3.60;;;;;;;27.76;42.62;96029.41;4987512;28;24472;-71
2022/08/30 11:37:08;;;;;;;4.67;3.40;;;;;;;27.50;43.55;96024.72;4990063;28;24502;-71
2022/08/30 11:39:53;;;;;;;5.90;3.30;;;;;;;27.28;44.12;96026.63;4977722;28;25053;-72
2022/08/30 11:42:33;;;;;;;5.72;3.40;;;;;;;27.61;44.31;96037.47;4977650;28;24536;-70
2022/08/30 11:45:41;;;;;;;3.63;3.15;;;;;;;27.29;42.80;96035.44;4985167;28;24453;-71